Kaiser, Missouri
Current Conditions -  °F | °C
As of 11:15 AM on Sunday 23 Nov 2014 (Local Time) from KAIZ Reporting Station
Overcast Overcast  
Wind Chill: 13°   Ceiling: 1000
Heat Index: 13°   Visibility: 10mi
Dew Point: 11°   Wind: 5mph
Humidity: 88%   Direction: 150°SSE
Pressure: 29.49"   Gusts: NA
Location:  38.13°N, 92.59°W
Report Text: KAIZ 231715Z AUTO 15004KT 10SM BKN010 OVC015 13/11 A2949 RMK AO1
Loading
Personal Weather Stations






























Interactive Weather Map New forecast layout! Learn more

10-Day Weather Forecast

Advertisements
Track Severe Weather on mobile